Time;durP1;ratioP1;P1;durP2;ratioP2;P2;SDS_P1;SDS_P2;PMS_P1;PMS_P2;Temp;Humidity;BMP_temperature;BMP_pressure;BME280_temperature;BME280_humidity;BME280_pressure;Samples;Min_cycle;Max_cycle;Signal;HPM_P1;HPM_P2
2021/12/30 00:01:24;;;;;;;21.35;7.68;;;;;;;-12.02;69.77;100405.72;5092261;28;20079;-81
2021/12/30 00:03:52;;;;;;;20.25;8.55;;;;;;;-12.02;69.74;100394.72;5093563;28;20155;-81
2021/12/30 00:06:21;;;;;;;21.65;8.77;;;;;;;-12.04;69.27;100381.97;5094433;28;20423;-82
2021/12/30 00:08:51;;;;;;;20.90;8.27;;;;;;;-11.93;69.66;100398.19;5099922;28;20139;-81
2021/12/30 00:11:18;;;;;;;20.67;8.57;;;;;;;-11.91;69.94;100399.22;5097413;28;20571;-82
2021/12/30 00:13:45;;;;;;;22.55;9.10;;;;;;;-11.91;69.23;100378.16;5097813;28;20139;-81
2021/12/30 00:16:13;;;;;;;19.55;7.95;;;;;;;-12.03;69.27;100353.53;5097443;28;20078;-81
2021/12/30 00:18:41;;;;;;;23.80;9.35;;;;;;;-11.71;69.54;100370.91;5101679;28;20052;-80
2021/12/30 00:21:08;;;;;;;23.23;8.45;;;;;;;-11.56;68.99;100394.22;5114202;28;20082;-82
2021/12/30 00:23:36;;;;;;;22.60;9.23;;;;;;;-11.71;69.11;100373.44;5104911;28;20046;-81
2021/12/30 00:26:03;;;;;;;21.95;8.95;;;;;;;-11.63;69.41;100389.31;5109310;28;20056;-82
2021/12/30 00:28:30;;;;;;;23.10;8.40;;;;;;;-11.61;69.01;100377.78;5110596;28;20062;-81
2021/12/30 00:30:58;;;;;;;21.30;9.07;;;;;;;-11.64;69.55;100387.53;5110524;28;20426;-81
2021/12/30 00:33:25;;;;;;;24.08;8.38;;;;;;;-11.63;69.64;100380.13;5101114;28;20503;-81
2021/12/30 00:35:52;;;;;;;23.77;8.32;;;;;;;-11.55;68.82;100374.22;5099289;28;20066;-83
2021/12/30 00:38:20;;;;;;;23.42;9.07;;;;;;;-11.72;68.93;100356.53;5099521;28;20531;-82
2021/12/30 00:40:47;;;;;;;21.85;8.98;;;;;;;-11.72;69.55;100373.28;5099914;28;20056;-82
2021/12/30 00:43:14;;;;;;;18.98;8.73;;;;;;;-11.70;69.25;100376.84;5100076;28;20051;-82
2021/12/30 00:45:41;;;;;;;20.40;9.20;;;;;;;-11.69;69.25;100383.69;5098262;28;20075;-82
2021/12/30 00:48:09;;;;;;;23.83;9.70;;;;;;;-11.72;69.54;100350.59;5096177;28;20501;-83
2021/12/30 00:50:38;;;;;;;20.38;8.13;;;;;;;-11.46;69.21;100351.53;5095624;28;20055;-82
2021/12/30 00:53:07;;;;;;;22.88;8.57;;;;;;;-11.29;68.49;100375.88;5096923;28;20056;-82
2021/12/30 00:55:34;;;;;;;21.58;8.75;;;;;;;-11.42;68.78;100357.75;5096773;28;20509;-82
2021/12/30 00:58:04;;;;;;;25.27;8.70;;;;;;;-11.39;68.85;100371.56;5101490;28;20091;-82
2021/12/30 01:00:32;;;;;;;23.17;8.80;;;;;;;-11.47;68.93;100369.91;5106678;28;20059;-84
2021/12/30 01:02:59;;;;;;;19.02;7.93;;;;;;;-11.46;68.81;100363.22;5095949;28;20050;-83
2021/12/30 01:05:26;;;;;;;24.85;9.85;;;;;;;-11.40;69.26;100382.41;5096747;28;20452;-84
2021/12/30 01:07:53;;;;;;;21.20;8.57;;;;;;;-11.31;69.11;100389.97;5097018;28;20116;-84
2021/12/30 01:10:23;;;;;;;22.40;8.77;;;;;;;-11.29;69.36;100383.44;5107499;28;20048;-83
2021/12/30 01:12:52;;;;;;;19.20;7.90;;;;;;;-11.25;68.81;100387.13;5107695;28;20082;-83
2021/12/30 01:15:32;;;;;;;23.00;9.25;;;;;;;-11.13;68.92;100374.06;5106175;28;20059;-83
2021/12/30 01:21:11;;;;;;;22.27;8.90;;;;;;;-11.30;68.52;100361.47;5067747;28;20048;-83
2021/12/30 01:23:43;;;;;;;23.27;9.57;;;;;;;-11.24;68.85;100387.28;5076293;28;20088;-83
2021/12/30 01:26:12;;;;;;;20.38;9.13;;;;;;;-11.44;68.98;100329.88;5088112;28;20074;-83
2021/12/30 01:28:40;;;;;;;21.25;9.25;;;;;;;-11.12;69.16;100369.91;5097886;28;20523;-82
2021/12/30 01:31:07;;;;;;;26.33;9.30;;;;;;;-11.19;68.88;100360.88;5097548;28;20056;-84
2021/12/30 01:33:35;;;;;;;19.55;8.85;;;;;;;-11.20;68.54;100368.31;5094753;28;20076;-81
2021/12/30 01:36:02;;;;;;;23.88;8.77;;;;;;;-11.25;69.07;100375.41;5094327;28;20508;-82
2021/12/30 01:38:28;;;;;;;22.90;9.35;;;;;;;-11.28;68.63;100359.97;5096050;28;20094;-82
2021/12/30 01:41:00;;;;;;;23.50;9.55;;;;;;;-11.38;68.90;100333.00;5096047;28;20052;-83
2021/12/30 01:43:28;;;;;;;27.25;9.90;;;;;;;-11.30;68.79;100353.00;5095994;28;20135;-84
2021/12/30 01:45:55;;;;;;;33.10;11.52;;;;;;;-11.34;69.33;100354.34;5096597;28;20056;-84
2021/12/30 01:48:22;;;;;;;20.67;8.52;;;;;;;-11.30;68.94;100350.50;5093989;28;20402;-85
2021/12/30 01:50:49;;;;;;;22.63;8.65;;;;;;;-11.30;68.99;100351.38;5094816;28;20106;-84
2021/12/30 01:53:17;;;;;;;26.13;9.98;;;;;;;-11.40;68.93;100341.13;5095739;28;20056;-84
2021/12/30 01:55:46;;;;;;;22.45;9.25;;;;;;;-11.31;68.79;100354.66;5095566;28;20110;-84
2021/12/30 01:58:13;;;;;;;20.23;8.90;;;;;;;-11.37;68.84;100332.25;5095688;28;20573;-84
2021/12/30 02:00:43;;;;;;;22.23;8.77;;;;;;;-11.26;69.01;100353.47;5095413;28;20400;-83
2021/12/30 02:03:11;;;;;;;;;;;;;;;-11.30;69.11;100345.44;5096103;28;20050;-83
2021/12/30 02:05:39;;;;;;;22.65;8.85;;;;;;;-11.31;69.03;100339.53;5095408;28;19951;-82
2021/12/30 02:08:09;;;;;;;24.88;9.20;;;;;;;-11.23;69.10;100345.28;5094607;28;20413;-83
2021/12/30 02:10:37;;;;;;;24.85;9.73;;;;;;;-11.11;69.28;100330.47;5096042;28;20142;-82
2021/12/30 02:13:04;;;;;;;25.38;9.95;;;;;;;-10.98;68.63;100335.94;5095862;28;20052;-82
2021/12/30 02:15:31;;;;;;;25.65;9.82;;;;;;;-10.90;68.63;100351.78;5085640;28;20048;-83
2021/12/30 02:17:59;;;;;;;21.85;10.18;;;;;;;-10.92;68.97;100350.03;5077816;28;20513;-83
2021/12/30 02:20:41;;;;;;;23.95;9.75;;;;;;;-10.97;69.08;100355.34;5075574;28;20091;-82
2021/12/30 02:23:09;;;;;;;22.08;8.32;;;;;;;-11.07;68.84;100322.44;5088839;28;20051;-83
2021/12/30 02:25:36;;;;;;;26.02;10.70;;;;;;;-10.99;68.98;100340.09;5101063;28;20063;-81
2021/12/30 02:28:09;;;;;;;24.02;10.23;;;;;;;-10.95;69.26;100347.22;5095218;28;20052;-82
2021/12/30 02:30:37;;;;;;;20.58;9.50;;;;;;;-10.97;68.85;100312.47;5094741;28;20056;-82
2021/12/30 02:33:05;;;;;;;23.90;10.30;;;;;;;-10.67;68.75;100352.34;5093982;28;20536;-83
2021/12/30 02:35:33;;;;;;;26.80;10.05;;;;;;;-10.69;68.63;100331.09;5095499;28;20078;-82
2021/12/30 02:38:02;;;;;;;24.75;10.20;;;;;;;-10.54;68.62;100346.81;5095174;28;20105;-81
2021/12/30 02:40:36;;;;;;;33.00;11.63;;;;;;;-10.62;68.66;100352.78;5093320;28;20056;-83
2021/12/30 02:43:07;;;;;;;28.60;11.18;;;;;;;-10.79;68.67;100328.47;5093564;28;20101;-82
2021/12/30 02:45:34;;;;;;;31.35;10.45;;;;;;;-10.77;68.86;100347.19;5094900;28;20064;-83
2021/12/30 02:48:01;;;;;;;36.92;12.73;;;;;;;-10.82;69.07;100340.78;5093163;28;20421;-81
2021/12/30 02:50:29;;;;;;;33.17;12.68;;;;;;;-10.86;69.22;100336.19;5095171;28;20044;-82
2021/12/30 02:52:56;;;;;;;36.08;11.07;;;;;;;-10.89;69.13;100330.88;5094788;28;20056;-82
2021/12/30 02:55:23;;;;;;;24.45;9.70;;;;;;;-10.87;69.77;100327.72;5092574;28;20083;-82
2021/12/30 02:57:50;;;;;;;24.33;9.38;;;;;;;-10.82;69.52;100325.63;5078931;28;20048;-81
2021/12/30 03:00:17;;;;;;;21.75;8.95;;;;;;;-10.83;69.34;100314.66;5094293;28;20068;-82
2021/12/30 03:02:44;;;;;;;25.52;9.50;;;;;;;-10.81;69.51;100325.78;5076999;28;20413;-82
2021/12/30 03:05:15;;;;;;;28.25;11.27;;;;;;;-10.79;69.15;100318.38;5074079;28;20426;-83
2021/12/30 03:07:42;;;;;;;28.23;11.10;;;;;;;-10.59;69.32;100327.81;5075773;28;20155;-83
2021/12/30 03:10:15;;;;;;;24.23;9.50;;;;;;;-10.46;69.15;100323.16;5097512;28;20115;-83
2021/12/30 03:12:43;;;;;;;29.00;10.23;;;;;;;-10.35;69.25;100326.69;5099090;28;20062;-84
2021/12/30 03:15:12;;;;;;;28.00;11.02;;;;;;;-10.21;69.19;100301.03;5094946;28;20056;-83
2021/12/30 03:17:40;;;;;;;32.75;12.18;;;;;;;-10.08;68.90;100307.22;5095500;28;20101;-83
2021/12/30 03:20:09;;;;;;;28.05;11.38;;;;;;;-10.17;68.43;100318.25;5093742;28;20143;-83
2021/12/30 03:22:41;;;;;;;29.33;11.65;;;;;;;-10.22;69.02;100318.56;5094753;28;20094;-83
2021/12/30 03:25:10;;;;;;;29.17;12.30;;;;;;;-10.19;68.98;100323.94;5092834;28;20176;-82
2021/12/30 03:27:38;;;;;;;27.95;11.48;;;;;;;-10.18;68.97;100308.00;5094082;28;20139;-84
2021/12/30 03:30:08;;;;;;;25.17;11.00;;;;;;;-10.17;68.86;100285.41;5094370;28;20076;-83
2021/12/30 03:32:35;;;;;;;24.17;11.13;;;;;;;-10.31;68.64;100278.22;5094878;28;20064;-86
2021/12/30 03:35:03;;;;;;;24.73;10.10;;;;;;;-10.25;69.15;100300.63;5094906;28;20087;-82
2021/12/30 03:37:30;;;;;;;24.88;10.35;;;;;;;-10.39;69.32;100294.31;5078628;28;20054;-83
2021/12/30 03:39:57;;;;;;;27.92;11.27;;;;;;;-10.37;69.24;100308.84;5094577;28;20105;-82
2021/12/30 03:42:24;;;;;;;23.88;10.65;;;;;;;-10.40;69.48;100290.00;5093069;28;20425;-82
2021/12/30 03:44:56;;;;;;;20.55;9.30;;;;;;;-10.14;68.64;100290.72;5093444;28;20056;-83
2021/12/30 03:47:24;;;;;;;22.25;9.82;;;;;;;-10.06;68.79;100308.25;5093541;28;20560;-83
2021/12/30 03:49:52;;;;;;;21.20;9.20;;;;;;;-10.03;68.47;100300.94;5094194;28;20052;-82
2021/12/30 03:52:24;;;;;;;25.08;9.57;;;;;;;-9.85;68.72;100295.03;5093954;28;20432;-84
2021/12/30 03:54:51;;;;;;;22.80;9.05;;;;;;;-9.74;68.36;100307.00;5093938;28;20060;-84
2021/12/30 03:57:18;;;;;;;22.58;9.18;;;;;;;-9.88;68.36;100303.22;5092605;28;20488;-84
2021/12/30 03:59:45;;;;;;;18.83;8.45;;;;;;;-9.97;68.43;100294.78;5093973;28;20055;-84
2021/12/30 04:02:12;;;;;;;23.23;8.85;;;;;;;-10.07;68.88;100289.66;5093747;28;20048;-84
2021/12/30 04:04:39;;;;;;;23.35;9.52;;;;;;;-10.20;69.31;100279.19;5087755;28;20040;-85
2021/12/30 04:07:07;;;;;;;26.83;9.82;;;;;;;-9.99;68.90;100295.41;5091882;28;20051;-84
2021/12/30 04:09:35;;;;;;;22.95;10.52;;;;;;;-9.99;69.25;100283.66;5092140;28;20048;-85
2021/12/30 04:12:03;;;;;;;26.70;10.45;;;;;;;-10.10;68.64;100256.53;5082347;28;20060;-84
2021/12/30 04:14:30;;;;;;;23.98;10.52;;;;;;;-9.84;68.74;100278.22;5073972;28;20048;-85
2021/12/30 04:16:57;;;;;;;25.85;11.48;;;;;;;-9.73;68.91;100278.41;5074188;28;20053;-82
2021/12/30 04:19:24;;;;;;;29.38;11.00;;;;;;;-9.72;68.51;100292.84;5076611;28;20138;-82
2021/12/30 04:21:54;;;;;;;31.73;11.60;;;;;;;-9.60;68.35;100284.59;5079758;28;20058;-83
2021/12/30 04:24:21;;;;;;;26.55;11.80;;;;;;;-9.66;68.89;100274.78;5078602;28;20054;-84
2021/12/30 04:26:50;;;;;;;26.90;11.35;;;;;;;-9.55;68.92;100279.19;5074146;28;20056;-84
2021/12/30 04:29:18;;;;;;;28.00;11.32;;;;;;;-9.29;68.80;100280.59;5073406;28;20084;-83
2021/12/30 04:31:47;;;;;;;27.58;11.60;;;;;;;-9.32;68.26;100245.78;5073301;28;20463;-82
2021/12/30 04:34:15;;;;;;;27.73;11.55;;;;;;;-9.40;68.12;100256.88;5054665;28;20052;-83
2021/12/30 04:36:42;;;;;;;26.65;11.05;;;;;;;-9.39;68.31;100278.91;5073402;28;20044;-83
2021/12/30 04:39:10;;;;;;;23.23;11.20;;;;;;;-9.32;68.55;100275.28;5080310;28;20089;-84
2021/12/30 04:41:37;;;;;;;24.90;10.68;;;;;;;-9.41;68.47;100264.34;5090138;28;20468;-82
2021/12/30 04:44:04;;;;;;;22.67;9.93;;;;;;;-9.65;68.11;100237.78;5093440;28;20056;-82
2021/12/30 04:46:33;;;;;;;26.45;10.82;;;;;;;-9.35;68.04;100269.97;5090841;28;20052;-83
2021/12/30 04:49:00;;;;;;;25.08;10.32;;;;;;;-9.28;68.40;100268.09;5075735;28;20151;-85
2021/12/30 04:51:27;;;;;;;26.77;10.60;;;;;;;-9.30;67.96;100269.59;5077213;28;20110;-85
2021/12/30 04:53:54;;;;;;;24.70;10.30;;;;;;;-9.41;68.79;100265.22;5083221;28;20079;-85
2021/12/30 04:56:21;;;;;;;25.85;10.65;;;;;;;-9.34;68.10;100295.38;5074190;28;20057;-83
2021/12/30 04:58:58;;;;;;;25.10;10.52;;;;;;;-9.35;68.33;100282.59;5074376;28;20044;-82
2021/12/30 05:01:25;;;;;;;26.27;11.18;;;;;;;-9.39;68.54;100273.84;5079058;28;20056;-82
2021/12/30 05:03:52;;;;;;;25.75;11.45;;;;;;;-9.28;68.35;100285.78;5085831;28;20052;-82
2021/12/30 05:06:19;;;;;;;25.02;10.75;;;;;;;-9.22;68.39;100288.00;5071752;28;20084;-81
2021/12/30 05:08:47;;;;;;;23.83;10.35;;;;;;;-9.42;68.40;100263.47;5115645;23;20063;-82
2021/12/30 05:11:14;;;;;;;25.02;10.20;;;;;;;-9.04;68.66;100280.22;5112271;28;20056;-84
2021/12/30 05:13:41;;;;;;;24.85;10.98;;;;;;;-8.82;67.64;100300.69;5098898;28;20047;-83
2021/12/30 05:16:08;;;;;;;24.67;10.27;;;;;;;-8.81;67.74;100284.75;5097012;28;20097;-83
2021/12/30 05:18:36;;;;;;;25.95;10.43;;;;;;;-8.73;67.58;100266.03;5098367;28;20101;-83
2021/12/30 05:21:05;;;;;;;26.17;10.88;;;;;;;-8.79;67.87;100255.41;5099600;28;20125;-85
2021/12/30 05:23:32;;;;;;;28.17;11.23;;;;;;;-8.55;67.75;100285.34;5099927;28;20048;-85
2021/12/30 05:25:59;;;;;;;25.88;10.10;;;;;;;-8.52;67.18;100280.53;5099262;28;20056;-86
2021/12/30 05:28:26;;;;;;;27.52;11.18;;;;;;;-8.51;67.22;100281.44;5104877;28;20027;-86
2021/12/30 05:30:53;;;;;;;29.67;11.23;;;;;;;-8.72;67.26;100260.22;5099769;28;20056;-83
2021/12/30 05:33:21;;;;;;;29.48;11.27;;;;;;;-8.72;67.29;100288.06;5098931;28;20043;-87
2021/12/30 05:35:48;;;;;;;33.03;12.02;;;;;;;-8.96;67.97;100264.94;5099028;28;20093;-82
2021/12/30 05:38:17;;;;;;;33.20;11.63;;;;;;;-8.79;68.27;100278.19;5097010;28;20398;-84
2021/12/30 05:40:44;;;;;;;27.35;10.82;;;;;;;-8.70;67.66;100268.84;5096203;28;20531;-83
2021/12/30 05:43:12;;;;;;;30.73;11.55;;;;;;;-8.63;67.63;100275.31;5095249;28;20106;-83
2021/12/30 05:45:40;;;;;;;30.02;11.38;;;;;;;-8.71;67.59;100255.28;5094697;28;20512;-80
2021/12/30 05:48:08;;;;;;;33.22;12.10;;;;;;;-8.55;67.83;100260.00;5095422;28;20188;-84
2021/12/30 05:50:35;;;;;;;29.85;11.77;;;;;;;-8.61;67.62;100273.78;5095044;28;20044;-84
2021/12/30 05:53:03;;;;;;;28.95;11.77;;;;;;;-8.67;67.80;100272.53;5095289;28;20048;-83
2021/12/30 05:55:30;;;;;;;32.72;11.68;;;;;;;-8.60;67.74;100273.94;5094886;28;20056;-84
2021/12/30 05:57:58;;;;;;;29.70;11.20;;;;;;;-8.49;67.73;100268.13;5094870;28;20064;-83
2021/12/30 06:00:29;;;;;;;28.70;10.88;;;;;;;-8.41;67.85;100265.34;5095121;28;20064;-83
2021/12/30 06:02:57;;;;;;;26.60;10.38;;;;;;;-8.27;67.06;100275.84;5095027;28;20093;-84
2021/12/30 06:05:24;;;;;;;28.13;10.77;;;;;;;-8.31;67.14;100268.75;5094654;28;20055;-84
2021/12/30 06:07:51;;;;;;;28.00;10.70;;;;;;;-8.29;67.18;100268.88;5094155;28;20102;-83
2021/12/30 06:10:19;;;;;;;24.95;10.88;;;;;;;-8.07;67.13;100274.97;5097712;28;20074;-84
2021/12/30 06:12:47;;;;;;;23.38;10.25;;;;;;;-8.10;66.52;100258.66;5096061;28;20196;-82
2021/12/30 06:15:14;;;;;;;30.38;10.60;;;;;;;-8.06;66.09;100274.25;5095410;28;20052;-83
2021/12/30 06:17:41;;;;;;;29.30;11.80;;;;;;;-8.01;67.36;100266.13;5094225;28;20056;-84
2021/12/30 06:20:13;;;;;;;31.90;12.57;;;;;;;-7.98;66.55;100263.84;5094700;28;20060;-83
2021/12/30 06:22:42;;;;;;;27.00;11.50;;;;;;;-7.98;66.74;100279.03;5094297;28;20553;-85
2021/12/30 06:25:11;;;;;;;27.63;12.30;;;;;;;-7.96;66.72;100273.34;5094367;28;20052;-82
2021/12/30 06:27:38;;;;;;;33.95;12.57;;;;;;;-7.98;66.53;100271.44;5094274;28;20056;-82
2021/12/30 06:30:06;;;;;;;26.13;11.93;;;;;;;-7.85;66.26;100279.28;5094231;28;20060;-82
2021/12/30 06:32:34;;;;;;;26.58;12.02;;;;;;;-7.77;66.65;100279.94;5093526;28;20040;-83
2021/12/30 06:35:01;;;;;;;31.85;13.07;;;;;;;-7.83;66.77;100281.22;5093360;28;20060;-82
2021/12/30 06:37:30;;;;;;;27.05;12.43;;;;;;;-7.91;66.77;100274.63;5094366;28;20048;-82
2021/12/30 06:40:03;;;;;;;26.05;12.25;;;;;;;-7.65;66.48;100276.75;5076112;28;20075;-83
2021/12/30 06:42:31;;;;;;;23.55;11.30;;;;;;;-7.65;66.06;100259.00;5092725;28;20451;-84
2021/12/30 06:44:59;;;;;;;26.27;11.68;;;;;;;-7.51;66.14;100284.59;5093380;28;20486;-82
2021/12/30 06:47:25;;;;;;;29.60;11.73;;;;;;;-7.50;65.90;100287.28;5093675;28;20520;-84
2021/12/30 06:49:58;;;;;;;28.15;12.05;;;;;;;-7.45;65.80;100298.69;5093647;28;20048;-81
2021/12/30 06:52:26;;;;;;;28.52;11.98;;;;;;;-7.47;66.70;100304.41;5092727;28;20048;-82
2021/12/30 06:54:53;;;;;;;28.92;12.65;;;;;;;-7.44;66.45;100295.41;5092840;28;20527;-82
2021/12/30 06:57:20;;;;;;;30.02;11.85;;;;;;;-7.39;66.30;100290.69;5093339;28;20506;-82
2021/12/30 06:59:47;;;;;;;25.30;11.95;;;;;;;-7.21;66.00;100299.78;5094400;28;20047;-82
2021/12/30 07:02:14;;;;;;;29.05;12.27;;;;;;;-7.15;66.19;100299.38;5094328;28;20063;-85
2021/12/30 07:04:42;;;;;;;29.75;11.98;;;;;;;-7.16;66.06;100282.41;5097239;28;20116;-81
2021/12/30 07:07:09;;;;;;;33.33;13.40;;;;;;;-7.07;65.88;100284.78;5098881;28;20064;-83
2021/12/30 07:09:36;;;;;;;31.83;13.82;;;;;;;-7.15;65.98;100290.88;5097519;28;20056;-83
2021/12/30 07:12:05;;;;;;;31.05;14.52;;;;;;;-7.21;66.51;100287.06;5100198;28;20589;-83
2021/12/30 07:14:33;;;;;;;31.50;14.75;;;;;;;-7.13;66.33;100289.38;5098926;28;20062;-81
2021/12/30 07:17:00;;;;;;;31.35;13.88;;;;;;;-7.22;66.00;100261.59;5098572;28;20071;-83
2021/12/30 07:19:27;;;;;;;30.88;13.93;;;;;;;-7.12;66.13;100270.81;5100975;28;20048;-82
2021/12/30 07:21:54;;;;;;;26.33;13.02;;;;;;;-7.15;66.45;100275.66;5102354;28;20052;-86
2021/12/30 07:24:21;;;;;;;30.30;13.50;;;;;;;-7.25;65.98;100263.84;5098422;28;20047;-84
2021/12/30 07:26:49;;;;;;;32.08;13.75;;;;;;;-7.02;66.33;100284.34;5095945;28;20052;-83
2021/12/30 07:29:17;;;;;;;27.05;13.68;;;;;;;-6.92;65.83;100280.91;5100483;28;20048;-83
2021/12/30 07:31:45;;;;;;;33.33;13.80;;;;;;;-6.86;65.63;100278.84;5095760;28;20058;-84
2021/12/30 07:34:12;;;;;;;29.45;13.38;;;;;;;-6.89;66.15;100275.19;5098206;28;20047;-87
2021/12/30 07:36:39;;;;;;;34.03;14.85;;;;;;;-7.02;66.46;100291.09;5099666;28;20532;-84
2021/12/30 07:39:06;;;;;;;36.10;14.80;;;;;;;-6.97;66.23;100286.38;5095655;28;20443;-80
2021/12/30 07:41:33;;;;;;;34.90;14.55;;;;;;;-6.93;66.17;100271.50;5085501;28;20040;-80
2021/12/30 07:44:00;;;;;;;31.65;13.73;;;;;;;-6.83;66.57;100283.28;5072766;28;20051;-82
2021/12/30 07:46:27;;;;;;;29.42;13.00;;;;;;;-6.75;66.68;100274.63;5072772;28;20045;-82
2021/12/30 07:48:54;;;;;;;31.05;14.05;;;;;;;-6.49;66.00;100291.00;5072838;28;20070;-80
2021/12/30 07:51:21;;;;;;;29.90;14.10;;;;;;;-6.42;65.63;100289.03;5073138;28;20105;-82
2021/12/30 07:53:48;;;;;;;33.72;15.43;;;;;;;-6.51;65.39;100297.63;5076814;28;20547;-81
2021/12/30 07:56:15;;;;;;;36.05;16.10;;;;;;;-6.52;66.00;100291.63;5073135;28;20053;-81
2021/12/30 07:58:42;;;;;;;38.63;16.50;;;;;;;-6.45;66.26;100278.66;5071456;28;20053;-80
2021/12/30 08:01:11;;;;;;;40.08;16.38;;;;;;;-6.35;65.97;100286.97;5072883;28;20048;-78
2021/12/30 08:03:38;;;;;;;35.70;16.08;;;;;;;-6.42;65.74;100276.34;5076340;28;20056;-84
2021/12/30 08:06:05;;;;;;;34.80;16.13;;;;;;;-6.38;65.75;100287.63;5074509;28;20517;-80
2021/12/30 08:08:32;;;;;;;30.95;14.98;;;;;;;-6.41;65.86;100282.28;5072392;28;20144;-83
2021/12/30 08:10:59;;;;;;;34.63;15.52;;;;;;;-6.53;65.32;100266.13;5073351;28;20116;-85
2021/12/30 08:13:27;;;;;;;30.73;14.77;;;;;;;-6.38;65.83;100285.09;5074715;28;20123;-82
2021/12/30 08:15:54;;;;;;;34.55;16.27;;;;;;;-6.26;65.89;100291.13;5072958;28;20056;-81
2021/12/30 08:18:21;;;;;;;41.03;18.20;;;;;;;-6.22;65.34;100289.69;5072875;28;20076;-82
2021/12/30 08:20:48;;;;;;;33.53;15.63;;;;;;;-6.17;65.58;100298.56;5054725;28;20125;-81
2021/12/30 08:23:15;;;;;;;33.38;16.40;;;;;;;-6.16;65.95;100290.16;5072811;28;20130;-81
2021/12/30 08:25:49;;;;;;;38.30;16.55;;;;;;;-6.02;65.77;100289.56;5072174;28;20056;-79
2021/12/30 08:28:17;;;;;;;29.75;13.98;;;;;;;-5.98;64.85;100281.41;5075289;28;20075;-84
2021/12/30 08:30:44;;;;;;;32.95;15.95;;;;;;;-5.84;65.38;100295.09;5088708;28;20052;-81
2021/12/30 08:33:11;;;;;;;31.52;15.35;;;;;;;-5.71;65.22;100286.72;5097281;28;20060;-81
2021/12/30 08:35:39;;;;;;;34.35;15.77;;;;;;;-5.61;64.48;100283.22;5097094;28;20051;-84
2021/12/30 08:38:06;;;;;;;37.80;16.10;;;;;;;-5.71;64.84;100286.72;5096671;28;20401;-85
2021/12/30 08:40:32;;;;;;;38.25;16.58;;;;;;;-5.74;65.18;100281.44;5096134;28;20052;-82
2021/12/30 08:42:59;;;;;;;29.05;14.40;;;;;;;-5.80;64.96;100265.69;5087303;28;20052;-82
2021/12/30 08:45:26;;;;;;;26.75;13.63;;;;;;;-5.84;65.61;100278.97;5095923;28;20109;-83
2021/12/30 08:47:54;;;;;;;30.00;13.90;;;;;;;-5.86;65.56;100267.78;5097655;28;20044;-81
2021/12/30 08:50:21;;;;;;;31.20;14.75;;;;;;;-5.83;65.51;100278.19;5097200;28;20447;-81
2021/12/30 08:52:48;;;;;;;32.20;14.50;;;;;;;-5.82;65.59;100268.13;5099966;28;20141;-80
2021/12/30 08:55:15;;;;;;;34.65;14.80;;;;;;;-5.87;65.25;100253.28;5112306;28;20147;-81
2021/12/30 08:57:45;;;;;;;29.27;14.07;;;;;;;-5.82;65.91;100260.47;5112833;28;20111;-82
2021/12/30 09:00:24;;;;;;;28.88;12.88;;;;;;;-5.95;65.65;100265.47;5101947;28;20048;-83
2021/12/30 09:02:53;;;;;;;29.15;13.77;;;;;;;-6.01;66.27;100247.19;5101501;28;20048;-82
2021/12/30 09:05:22;;;;;;;25.63;12.45;;;;;;;-5.85;65.39;100254.28;5103956;28;20115;-80
2021/12/30 09:07:50;;;;;;;24.55;11.98;;;;;;;-5.79;65.76;100265.78;5104720;28;20143;-81
2021/12/30 09:10:19;;;;;;;26.75;12.30;;;;;;;-5.90;65.83;100263.22;5097898;28;20105;-84
2021/12/30 09:12:47;;;;;;;26.98;12.63;;;;;;;-5.99;66.54;100268.56;5095870;28;20505;-81
2021/12/30 09:15:20;;;;;;;31.13;13.18;;;;;;;-5.88;66.33;100269.31;5096601;28;20125;-84
2021/12/30 09:17:49;;;;;;;24.05;12.27;;;;;;;-5.93;65.79;100252.84;5098041;28;20052;-83
2021/12/30 09:20:17;;;;;;;26.77;11.85;;;;;;;-6.04;65.52;100230.06;5098140;28;20554;-83
2021/12/30 09:22:44;;;;;;;26.05;11.52;;;;;;;-5.82;65.76;100267.25;5100818;28;20048;-82
2021/12/30 09:25:12;;;;;;;23.20;11.90;;;;;;;-5.80;65.81;100260.59;5095707;28;20531;-83
2021/12/30 09:27:41;;;;;;;25.33;12.02;;;;;;;-5.93;66.07;100248.63;5078904;28;20064;-84
2021/12/30 09:30:12;;;;;;;26.23;10.90;;;;;;;-5.84;65.94;100262.03;5077030;28;20048;-83
2021/12/30 09:32:40;;;;;;;30.08;11.90;;;;;;;-6.07;66.51;100228.94;5074955;28;20052;-83
2021/12/30 09:35:09;;;;;;;23.95;10.35;;;;;;;-5.93;65.97;100265.56;5076975;28;20053;-81
2021/12/30 09:37:36;;;;;;;22.63;11.10;;;;;;;-6.04;66.08;100258.03;5078260;28;20066;-81
2021/12/30 09:40:05;;;;;;;24.88;10.98;;;;;;;-5.90;66.34;100268.31;5075627;28;20460;-81
2021/12/30 09:42:32;;;;;;;25.10;11.32;;;;;;;-5.87;66.46;100255.81;5074312;28;20068;-81
2021/12/30 09:44:59;;;;;;;24.45;11.40;;;;;;;-5.70;65.44;100263.06;5092876;28;20481;-82
2021/12/30 09:47:26;;;;;;;23.75;11.20;;;;;;;-5.73;65.56;100244.13;5083522;28;20127;-82
2021/12/30 09:49:53;;;;;;;24.60;11.30;;;;;;;-5.69;65.90;100275.00;5095078;28;20075;-83
2021/12/30 09:52:20;;;;;;;24.08;10.65;;;;;;;-5.93;66.35;100255.38;5094706;28;20040;-81
2021/12/30 09:54:47;;;;;;;22.02;10.75;;;;;;;-5.97;66.31;100267.88;5095328;28;20105;-84
2021/12/30 09:57:14;;;;;;;28.13;11.60;;;;;;;-5.97;66.64;100249.19;5095421;28;20099;-83
2021/12/30 09:59:41;;;;;;;22.70;10.65;;;;;;;-6.06;66.46;100238.34;5094623;28;20097;-81
2021/12/30 10:02:09;;;;;;;23.75;11.05;;;;;;;-6.01;66.65;100244.66;5094442;28;20056;-82
2021/12/30 10:04:36;;;;;;;23.55;10.60;;;;;;;-5.91;66.88;100231.81;5088492;28;20060;-81
2021/12/30 10:07:18;;;;;;;24.65;10.75;;;;;;;-5.79;66.04;100214.91;5081953;28;20090;-84
2021/12/30 10:09:50;;;;;;;23.40;11.00;;;;;;;-5.53;66.23;100235.41;5081829;28;20048;-84
2021/12/30 10:12:44;;;;;;;24.85;11.30;;;;;;;-5.53;65.64;100233.75;5088472;28;20054;-84
2021/12/30 10:15:11;;;;;;;24.92;11.93;;;;;;;-5.59;66.30;100238.41;5077126;28;20571;-84
2021/12/30 10:17:38;;;;;;;23.95;11.38;;;;;;;-5.43;66.52;100228.53;5073935;28;20506;-86
2021/12/30 10:20:24;;;;;;;24.65;11.77;;;;;;;-5.33;65.85;100204.66;5074478;28;20052;-82
2021/12/30 10:22:53;;;;;;;23.67;10.68;;;;;;;-5.20;65.47;100231.88;5073775;28;20063;-83
2021/12/30 10:25:26;;;;;;;22.90;10.95;;;;;;;-5.48;65.73;100231.56;5074739;28;20052;-83
2021/12/30 10:27:55;;;;;;;28.02;11.35;;;;;;;-5.52;66.10;100227.00;5075324;28;20518;-82
2021/12/30 10:30:34;;;;;;;23.73;10.48;;;;;;;-5.58;66.09;100217.25;5076956;28;20055;-84
2021/12/30 10:33:14;;;;;;;26.25;11.02;;;;;;;-5.52;66.69;100211.75;5075199;28;20076;-82
2021/12/30 10:35:42;;;;;;;23.17;11.60;;;;;;;-5.36;66.05;100225.66;5073155;28;20414;-83
2021/12/30 10:38:11;;;;;;;23.77;11.50;;;;;;;-5.46;66.39;100202.88;5073733;28;20472;-82
2021/12/30 10:40:51;;;;;;;24.00;12.05;;;;;;;-5.26;66.57;100229.78;5075539;28;20429;-82
2021/12/30 10:43:47;;;;;;;22.92;11.80;;;;;;;-5.28;66.52;100208.41;5058574;28;20070;-83
2021/12/30 10:46:23;;;;;;;26.15;11.05;;;;;;;-5.27;66.03;100215.28;5086475;28;20105;-81
2021/12/30 10:48:58;;;;;;;25.20;12.15;;;;;;;-5.18;65.90;100207.41;5093912;28;20171;-81
2021/12/30 10:51:28;;;;;;;26.13;11.90;;;;;;;-5.14;66.26;100209.41;5093626;28;20109;-82
2021/12/30 10:53:57;;;;;;;25.90;11.40;;;;;;;-5.14;66.00;100201.75;5094613;28;20619;-83
2021/12/30 10:56:32;;;;;;;26.80;11.60;;;;;;;-5.22;65.89;100183.38;5099172;28;20044;-80
2021/12/30 10:59:21;;;;;;;24.98;12.02;;;;;;;-5.13;66.11;100202.63;5093075;28;20101;-81
2021/12/30 11:02:04;;;;;;;25.70;11.65;;;;;;;-5.20;65.92;100186.91;5094720;28;20101;-81
2021/12/30 11:04:36;;;;;;;25.55;11.32;;;;;;;-5.49;66.17;100172.09;5094784;28;20048;-84
2021/12/30 11:07:04;;;;;;;22.10;10.70;;;;;;;-5.51;66.87;100193.13;5094185;28;20056;-83
2021/12/30 11:09:31;;;;;;;24.35;11.73;;;;;;;-5.48;66.89;100184.06;5092253;28;20151;-82
2021/12/30 11:12:02;;;;;;;23.73;11.65;;;;;;;-5.29;66.81;100167.53;5093630;28;20054;-83
2021/12/30 11:14:34;;;;;;;24.02;11.40;;;;;;;-5.11;66.07;100170.50;5102921;28;20058;-84
2021/12/30 11:17:07;;;;;;;24.73;12.02;;;;;;;-5.11;66.22;100175.59;5099138;28;20052;-83
2021/12/30 11:19:40;;;;;;;28.02;11.52;;;;;;;-5.38;66.36;100148.31;5086458;28;20433;-84